Time;durP1;ratioP1;P1;durP2;ratioP2;P2;SDS_P1;SDS_P2;PMS_P1;PMS_P2;Temp;Humidity;BMP_temperature;BMP_pressure;BME280_temperature;BME280_humidity;BME280_pressure;Samples;Min_cycle;Max_cycle;Signal;HPM_P1;HPM_P2
2023/10/01 00:00:32;;;;;;;8.38;6.35;;;;;;;24.18;49.74;101728.22;5022826;28;20045;-64
2023/10/01 00:02:59;;;;;;;7.13;6.43;;;;;;;24.17;49.87;101729.19;5020948;28;20061;-65
2023/10/01 00:05:27;;;;;;;6.28;5.68;;;;;;;24.20;49.80;101729.94;5020656;28;20042;-61
2023/10/01 00:07:54;;;;;;;6.43;5.30;;;;;;;24.19;50.10;101731.78;5022859;28;20065;-62
2023/10/01 00:10:22;;;;;;;6.78;6.05;;;;;;;24.20;49.90;101729.94;5022555;28;20049;-61
2023/10/01 00:12:56;;;;;;;5.68;5.10;;;;;;;24.20;49.68;101732.63;5020555;28;20034;-62
2023/10/01 00:15:25;;;;;;;7.07;6.38;;;;;;;24.20;49.96;101730.78;5020501;28;20069;-62
2023/10/01 00:17:53;;;;;;;7.60;6.00;;;;;;;24.20;49.87;101729.94;5023716;28;20514;-62
2023/10/01 00:20:23;;;;;;;7.20;6.13;;;;;;;24.20;49.96;101730.78;5021210;28;20046;-62
2023/10/01 00:22:57;;;;;;;7.80;6.35;;;;;;;24.21;49.87;101731.63;5020118;28;20038;-62
2023/10/01 00:25:27;;;;;;;7.68;5.95;;;;;;;24.20;49.85;101733.47;5020776;28;20052;-61
2023/10/01 00:27:59;;;;;;;6.60;5.60;;;;;;;24.20;50.12;101722.66;5023664;28;20053;-62
2023/10/01 00:30:31;;;;;;;7.32;6.20;;;;;;;24.20;49.79;101725.38;5008347;28;20058;-64
2023/10/01 00:33:07;;;;;;;6.75;6.03;;;;;;;24.20;49.97;101724.50;5019932;28;20050;-65
2023/10/01 00:35:39;;;;;;;8.40;6.30;;;;;;;24.19;49.68;101729.06;5023037;28;20056;-66
2023/10/01 00:38:08;;;;;;;7.55;6.05;;;;;;;24.19;50.00;101718.25;5018590;28;20053;-64
2023/10/01 00:40:36;;;;;;;7.57;5.47;;;;;;;24.17;49.98;101726.50;5018119;28;20049;-64
2023/10/01 00:43:04;;;;;;;6.00;5.40;;;;;;;24.18;49.69;101724.63;5020372;28;20492;-65
2023/10/01 00:45:32;;;;;;;6.85;5.53;;;;;;;24.17;49.99;101721.09;5037801;28;20045;-64
2023/10/01 00:48:18;;;;;;;7.82;5.55;;;;;;;24.18;49.92;101727.34;5019881;28;20054;-65
2023/10/01 00:50:46;;;;;;;6.75;5.57;;;;;;;24.17;49.67;101718.38;5019986;28;20050;-64
2023/10/01 00:53:13;;;;;;;6.07;5.40;;;;;;;24.17;50.03;101721.09;5022470;28;20041;-65
2023/10/01 00:55:41;;;;;;;7.20;5.75;;;;;;;24.16;49.97;101713.97;5020870;28;20052;-65
2023/10/01 00:58:10;;;;;;;8.65;5.82;;;;;;;24.16;49.64;101713.97;5018026;28;20050;-65
2023/10/01 01:00:38;;;;;;;7.85;5.70;;;;;;;24.17;49.52;101714.81;5019511;28;20041;-64
2023/10/01 01:03:07;;;;;;;6.93;5.70;;;;;;;24.16;49.97;101713.97;5022336;28;20046;-64
2023/10/01 01:05:49;;;;;;;8.00;5.65;;;;;;;24.15;49.67;101717.69;5022303;28;20050;-65
2023/10/01 01:08:22;;;;;;;7.22;5.85;;;;;;;24.16;49.70;101711.25;5023976;28;20054;-65
2023/10/01 01:10:51;;;;;;;7.40;6.10;;;;;;;24.16;50.02;101710.41;5019684;28;20527;-61
2023/10/01 01:13:23;;;;;;;7.68;5.43;;;;;;;24.15;49.60;101720.38;5019187;28;20056;-61
2023/10/01 01:15:52;;;;;;;6.07;5.32;;;;;;;24.15;49.71;101714.97;5019283;28;20057;-61
2023/10/01 01:18:21;;;;;;;7.78;5.78;;;;;;;24.14;50.11;101715.94;5018904;28;20511;-61
2023/10/01 01:20:57;;;;;;;6.22;5.63;;;;;;;24.15;49.58;101717.69;5017856;28;20503;-61
2023/10/01 01:23:26;;;;;;;6.50;5.85;;;;;;;24.14;49.82;101715.09;5018757;28;20405;-60
2023/10/01 01:25:54;;;;;;;6.60;5.40;;;;;;;24.15;49.83;101730.34;5017445;28;20057;-61
2023/10/01 01:28:27;;;;;;;6.63;5.88;;;;;;;24.15;49.96;101724.94;5018315;28;20077;-61
2023/10/01 01:30:55;;;;;;;6.45;5.43;;;;;;;24.13;49.60;101722.38;5020817;28;20045;-61
2023/10/01 01:33:26;;;;;;;6.38;5.70;;;;;;;24.15;49.98;101731.22;5017226;28;20068;-61
2023/10/01 01:35:54;;;;;;;5.90;5.30;;;;;;;24.15;49.59;101743.88;5019117;28;20061;-61
2023/10/01 01:38:22;;;;;;;6.45;5.35;;;;;;;24.14;49.60;101728.63;5020965;28;20412;-61
2023/10/01 01:40:52;;;;;;;6.53;5.43;;;;;;;24.13;49.65;101730.47;5020971;28;20069;-61
2023/10/01 01:43:22;;;;;;;7.13;5.47;;;;;;;24.14;49.69;101732.19;5017302;28;20519;-61
2023/10/01 01:46:00;;;;;;;7.40;6.07;;;;;;;24.14;49.59;101734.88;5017752;28;20061;-61
2023/10/01 01:48:30;;;;;;;6.50;5.75;;;;;;;24.13;49.66;101735.03;5013336;28;20056;-63
2023/10/01 01:51:02;;;;;;;6.35;5.25;;;;;;;24.13;49.85;101733.19;5018860;28;20046;-60
2023/10/01 01:53:34;;;;;;;5.45;4.88;;;;;;;24.14;49.57;101731.31;5013398;28;20075;-61
2023/10/01 01:56:11;;;;;;;6.35;5.75;;;;;;;24.14;49.57;101734.03;5020351;28;20149;-61
2023/10/01 01:58:40;;;;;;;6.10;5.47;;;;;;;24.13;49.93;101732.34;5018217;28;20054;-63
2023/10/01 02:03:44;;;;;;;6.88;5.75;;;;;;;24.14;49.90;101737.59;5018595;28;20046;-65
2023/10/01 02:06:13;;;;;;;7.45;6.15;;;;;;;24.13;49.99;101740.44;5022451;28;20056;-65
2023/10/01 02:11:18;;;;;;;6.85;5.47;;;;;;;24.12;50.02;101736.91;5018570;28;20057;-61
2023/10/01 02:13:50;;;;;;;6.22;5.35;;;;;;;24.13;49.88;101738.59;5019281;28;20046;-61
2023/10/01 02:16:19;;;;;;;6.40;5.72;;;;;;;24.13;49.75;101735.88;5020208;28;20487;-61
2023/10/01 02:18:57;;;;;;;6.78;5.85;;;;;;;24.13;49.95;101741.31;5018768;28;20042;-61
2023/10/01 02:21:47;;;;;;;6.00;5.43;;;;;;;24.12;49.87;101738.75;5019085;28;20403;-61
2023/10/01 02:24:23;;;;;;;7.57;5.85;;;;;;;24.11;49.66;101732.50;5019312;28;20045;-61
2023/10/01 02:26:53;;;;;;;7.13;5.22;;;;;;;24.12;49.87;101734.19;5018573;28;20054;-62
2023/10/01 02:29:24;;;;;;;7.78;5.72;;;;;;;24.11;49.97;101735.19;5019317;28;20050;-63
2023/10/01 02:31:56;;;;;;;7.63;5.78;;;;;;;24.12;49.88;101734.19;5021194;28;20046;-65
2023/10/01 02:34:24;;;;;;;6.22;5.63;;;;;;;24.12;50.01;101738.75;5018409;28;20049;-65
2023/10/01 02:36:52;;;;;;;6.05;4.88;;;;;;;24.11;50.10;101735.19;5018487;28;20049;-65
2023/10/01 02:39:28;;;;;;;5.93;5.18;;;;;;;24.13;49.70;101743.16;5020596;28;20058;-63
2023/10/01 02:44:40;;;;;;;5.78;5.18;;;;;;;24.11;50.06;101748.72;5016993;28;20054;-64
2023/10/01 02:47:18;;;;;;;7.38;5.55;;;;;;;24.12;49.86;101749.56;5020125;28;20411;-65
2023/10/01 02:49:52;;;;;;;7.43;5.93;;;;;;;24.13;49.94;101753.97;5019778;28;20041;-64
2023/10/01 02:52:32;;;;;;;5.32;4.82;;;;;;;24.12;50.04;101755.84;5018811;28;20396;-65
2023/10/01 02:55:00;;;;;;;6.18;5.45;;;;;;;24.12;50.06;101755.84;5020439;28;20054;-64
2023/10/01 02:57:33;;;;;;;10.40;6.20;;;;;;;24.11;49.77;101748.72;5020357;28;20045;-65
2023/10/01 03:02:53;;;;;;;6.60;5.30;;;;;;;24.11;50.21;101748.72;5022426;28;20367;-61
2023/10/01 03:05:41;;;;;;;7.32;5.55;;;;;;;24.11;50.20;101758.69;5024046;28;20053;-61
2023/10/01 03:08:25;;;;;;;6.40;5.63;;;;;;;24.11;49.79;101753.28;5018656;28;20060;-61
2023/10/01 03:10:53;;;;;;;7.57;4.78;;;;;;;24.10;49.98;101752.41;5024788;28;20060;-61
2023/10/01 03:13:30;;;;;;;6.60;5.50;;;;;;;24.10;50.02;101757.81;5022947;28;20045;-61
2023/10/01 03:19:17;;;;;;;7.28;4.95;;;;;;;24.10;50.08;101751.53;4990021;28;20384;-61
2023/10/01 03:24:32;;;;;;;6.03;5.43;;;;;;;24.10;49.76;101765.06;5023256;28;20053;-61
2023/10/01 03:27:18;;;;;;;5.70;5.18;;;;;;;24.10;49.77;101762.38;5023682;28;20488;-61
2023/10/01 03:29:48;;;;;;;7.03;5.30;;;;;;;24.10;49.77;101763.22;5021576;28;20373;-64
2023/10/01 03:32:27;;;;;;;5.88;5.28;;;;;;;24.09;50.14;101764.22;5021971;28;20050;-65
2023/10/01 03:34:56;;;;;;;6.43;4.95;;;;;;;24.10;49.83;101759.66;5023288;28;20415;-65
2023/10/01 03:37:37;;;;;;;5.93;5.10;;;;;;;24.09;50.08;101758.81;5021089;28;20413;-64
2023/10/01 03:40:15;;;;;;;6.47;5.68;;;;;;;24.09;49.97;101761.50;5021544;28;20508;-64
2023/10/01 03:42:50;;;;;;;5.80;4.97;;;;;;;24.09;49.79;101753.41;5023674;28;20060;-65
2023/10/01 03:48:05;;;;;;;6.25;5.63;;;;;;;24.08;49.71;101753.56;5021940;28;20056;-65
2023/10/01 03:50:35;;;;;;;6.00;4.93;;;;;;;24.09;49.68;101758.81;5024113;28;20072;-64
2023/10/01 03:53:11;;;;;;;5.38;4.60;;;;;;;24.09;49.81;101755.25;5020967;28;20049;-65
2023/10/01 03:55:42;;;;;;;5.20;4.70;;;;;;;24.09;49.55;101755.25;5020839;28;20054;-65
2023/10/01 03:58:18;;;;;;;5.30;4.72;;;;;;;24.09;49.55;101760.66;5024024;28;20411;-65
2023/10/01 04:00:53;;;;;;;5.70;5.10;;;;;;;24.08;49.89;101762.53;5020314;28;20400;-64
2023/10/01 04:03:21;;;;;;;5.63;5.03;;;;;;;24.08;49.70;101765.22;5020572;28;20050;-65
2023/10/01 04:05:56;;;;;;;5.18;4.68;;;;;;;24.08;49.68;101765.22;5022278;28;20489;-65
2023/10/01 04:08:26;;;;;;;6.30;5.22;;;;;;;24.08;49.46;101758.97;5022027;28;20056;-65
2023/10/01 04:11:00;;;;;;;6.22;5.15;;;;;;;24.09;49.68;101755.25;5019972;28;20056;-61
2023/10/01 04:13:28;;;;;;;6.72;4.95;;;;;;;24.08;49.60;101762.53;5020604;28;20042;-61
2023/10/01 04:15:56;;;;;;;5.82;4.75;;;;;;;24.07;49.49;101760.81;5015787;28;20530;-61
2023/10/01 04:18:28;;;;;;;5.00;4.50;;;;;;;24.08;49.81;101758.97;5020399;28;20415;-64
2023/10/01 04:23:32;;;;;;;5.90;4.30;;;;;;;24.08;49.51;101753.56;5020863;28;20484;-65
2023/10/01 04:26:06;;;;;;;5.47;4.97;;;;;;;24.08;49.84;101759.81;5022607;28;20045;-64
2023/10/01 04:28:37;;;;;;;4.85;4.38;;;;;;;24.07;49.81;101763.53;5020271;28;20061;-64
2023/10/01 04:31:14;;;;;;;6.28;5.22;;;;;;;24.08;49.46;101765.22;5019985;28;20054;-65
2023/10/01 04:33:45;;;;;;;7.10;5.05;;;;;;;24.07;49.73;101763.53;5016689;28;20052;-65
2023/10/01 04:36:16;;;;;;;5.63;5.13;;;;;;;24.08;49.94;101762.53;5031167;28;20057;-65
2023/10/01 04:38:45;;;;;;;6.28;5.07;;;;;;;24.09;49.65;101760.66;5020420;28;20397;-64
2023/10/01 04:41:16;;;;;;;5.28;4.78;;;;;;;24.08;49.76;101762.53;5022121;28;20049;-65
2023/10/01 04:43:56;;;;;;;6.13;4.70;;;;;;;24.09;49.84;101771.50;5022402;28;20522;-65
2023/10/01 04:46:25;;;;;;;5.50;4.68;;;;;;;24.09;50.00;101771.50;5020166;28;20050;-65
2023/10/01 04:48:53;;;;;;;5.63;4.72;;;;;;;24.09;50.04;101771.50;5020141;28;20061;-61
2023/10/01 04:51:24;;;;;;;5.60;4.88;;;;;;;24.08;50.08;101776.03;5023493;28;20049;-61
2023/10/01 04:53:59;;;;;;;5.63;4.80;;;;;;;24.08;49.66;101770.63;5020077;28;20046;-61
2023/10/01 04:56:27;;;;;;;5.72;4.47;;;;;;;24.09;50.01;101772.34;5020006;28;20050;-61
2023/10/01 04:58:54;;;;;;;5.18;4.68;;;;;;;24.08;49.76;101772.50;5021998;28;20042;-64
2023/10/01 05:01:24;;;;;;;5.22;4.70;;;;;;;24.07;49.80;101768.94;5022686;28;20064;-65
2023/10/01 05:03:52;;;;;;;5.13;4.63;;;;;;;24.08;49.83;101770.63;5019703;28;20049;-65
2023/10/01 05:06:20;;;;;;;5.88;4.97;;;;;;;24.08;49.75;101775.19;5019490;28;20412;-65
2023/10/01 05:08:51;;;;;;;5.53;4.78;;;;;;;24.07;49.75;101777.03;5021462;28;20045;-61
2023/10/01 05:11:22;;;;;;;6.10;5.40;;;;;;;24.07;49.99;101782.47;5020968;28;20053;-61
2023/10/01 05:13:53;;;;;;;5.72;4.55;;;;;;;24.07;49.64;101778.91;5019549;28;20508;-61
2023/10/01 05:16:26;;;;;;;5.68;4.28;;;;;;;24.06;49.60;101780.72;5019231;28;20061;-61
2023/10/01 05:19:19;;;;;;;5.97;4.75;;;;;;;24.07;49.51;101781.59;5015502;28;20049;-64
2023/10/01 05:21:47;;;;;;;6.05;5.30;;;;;;;24.06;49.89;101788.00;5010976;28;20057;-64
2023/10/01 05:24:31;;;;;;;6.68;5.10;;;;;;;24.06;49.54;101794.25;5019204;28;20042;-63
2023/10/01 05:27:02;;;;;;;;;;;;;;;24.04;49.54;101793.56;5021860;28;20049;-63
2023/10/01 05:29:31;;;;;;;5.35;4.80;;;;;;;24.05;49.67;101795.25;5019219;28;19925;-62
2023/10/01 05:31:59;;;;;;;5.03;4.53;;;;;;;24.05;49.84;101805.22;5018993;28;20049;-64
2023/10/01 05:34:28;;;;;;;5.28;4.70;;;;;;;24.05;49.63;101819.59;5021841;28;20048;-64
2023/10/01 05:37:08;;;;;;;6.20;4.88;;;;;;;24.05;49.59;101822.31;5014110;28;20053;-64
2023/10/01 05:39:55;;;;;;;6.88;4.97;;;;;;;24.04;49.74;101828.72;5018922;28;20046;-60
2023/10/01 05:42:26;;;;;;;5.47;4.97;;;;;;;24.05;49.42;101829.56;5013608;28;20041;-61
2023/10/01 05:44:59;;;;;;;5.10;4.55;;;;;;;24.05;49.56;101840.38;5019231;28;20396;-59
2023/10/01 05:47:41;;;;;;;5.07;4.57;;;;;;;24.04;49.80;101844.94;5018804;28;20492;-60
2023/10/01 05:50:10;;;;;;;5.28;4.72;;;;;;;24.04;49.88;101847.66;5021448;28;20496;-65
2023/10/01 05:52:40;;;;;;;5.15;4.63;;;;;;;24.04;49.85;101854.91;5018939;28;20057;-64
2023/10/01 05:55:08;;;;;;;7.20;4.93;;;;;;;24.04;49.46;101849.50;5018588;28;20072;-64
2023/10/01 05:57:39;;;;;;;7.95;4.82;;;;;;;24.04;49.63;101860.31;5018653;28;20054;-64
2023/10/01 06:00:16;;;;;;;5.28;4.78;;;;;;;24.04;49.91;101863.88;5022178;28;20037;-64
2023/10/01 06:02:48;;;;;;;6.32;5.35;;;;;;;24.03;49.81;101867.59;5018994;28;20041;-63
2023/10/01 06:05:42;;;;;;;6.10;5.13;;;;;;;24.04;49.71;101869.28;5018704;28;20042;-66
2023/10/01 06:08:18;;;;;;;6.05;5.45;;;;;;;24.04;49.53;101882.81;5016089;28;20053;-66
2023/10/01 06:11:03;;;;;;;6.03;4.80;;;;;;;24.04;49.89;101884.66;5019123;28;20220;-61
2023/10/01 06:13:37;;;;;;;6.28;5.47;;;;;;;24.04;49.86;101887.38;5019740;28;20046;-62
2023/10/01 06:16:13;;;;;;;6.00;5.30;;;;;;;24.04;49.60;101881.97;5021604;28;20053;-61
2023/10/01 06:18:50;;;;;;;6.05;5.45;;;;;;;24.04;49.83;101876.56;5018939;28;20045;-64
2023/10/01 06:21:22;;;;;;;5.07;4.57;;;;;;;24.04;49.70;101888.22;5018700;28;20053;-65
2023/10/01 06:23:58;;;;;;;5.77;5.10;;;;;;;24.04;50.07;101887.38;5022214;28;20492;-65
2023/10/01 06:26:36;;;;;;;5.70;4.72;;;;;;;24.04;49.88;101893.63;5009047;28;20485;-65
2023/10/01 06:29:07;;;;;;;5.18;4.65;;;;;;;24.05;49.64;101889.09;5018737;28;20046;-64
2023/10/01 06:31:48;;;;;;;5.90;5.00;;;;;;;24.04;49.82;101888.22;5012739;28;20053;-64
2023/10/01 06:34:23;;;;;;;5.45;4.78;;;;;;;24.05;49.72;101889.94;5012168;28;20046;-65
2023/10/01 06:36:58;;;;;;;6.53;5.13;;;;;;;24.05;49.88;101889.94;5022462;28;20050;-64
2023/10/01 06:39:27;;;;;;;5.82;5.07;;;;;;;24.04;50.04;101877.41;5025831;28;20058;-65
2023/10/01 06:42:18;;;;;;;5.35;4.85;;;;;;;24.05;49.90;101876.41;5023268;28;20053;-66
2023/10/01 06:44:52;;;;;;;5.97;5.30;;;;;;;24.05;49.69;101889.94;5022061;28;20476;-64
2023/10/01 06:47:26;;;;;;;6.63;4.75;;;;;;;24.07;50.00;101887.09;5017651;28;20491;-66
2023/10/01 06:50:07;;;;;;;5.45;4.95;;;;;;;24.06;49.90;101893.50;5022469;28;20049;-62
2023/10/01 06:52:41;;;;;;;5.63;5.05;;;;;;;24.06;49.77;101891.63;5018076;28;20050;-61
2023/10/01 06:55:25;;;;;;;7.15;4.75;;;;;;;24.07;49.99;101897.94;5025643;28;20041;-62
2023/10/01 06:58:00;;;;;;;6.15;4.50;;;;;;;24.06;50.09;101899.75;5012704;28;20058;-62
2023/10/01 07:00:33;;;;;;;6.00;5.35;;;;;;;24.06;50.16;101905.16;5022028;28;20056;-62
2023/10/01 07:03:21;;;;;;;6.22;5.57;;;;;;;24.06;50.10;101902.47;5025776;28;20050;-62
2023/10/01 07:05:55;;;;;;;6.50;5.35;;;;;;;24.06;49.99;101907.88;5012208;28;20049;-62
2023/10/01 07:08:37;;;;;;;6.90;5.82;;;;;;;24.06;50.05;101915.97;5021809;28;20061;-64
2023/10/01 07:11:18;;;;;;;5.47;4.72;;;;;;;24.07;50.15;101925.84;5019322;28;20049;-61
2023/10/01 07:13:48;;;;;;;5.72;4.90;;;;;;;24.07;50.27;101931.25;5012983;28;20057;-61
2023/10/01 07:16:35;;;;;;;6.45;5.32;;;;;;;24.08;50.14;101926.69;5021719;28;20050;-62
2023/10/01 07:19:04;;;;;;;5.88;4.90;;;;;;;24.08;50.28;101934.81;5020233;28;20049;-61
2023/10/01 07:21:33;;;;;;;6.32;4.80;;;;;;;24.08;50.04;101932.94;5021815;28;20392;-61
2023/10/01 07:24:04;;;;;;;5.68;5.07;;;;;;;24.08;50.34;101943.78;5021487;28;20049;-61
2023/10/01 07:26:33;;;;;;;5.97;5.00;;;;;;;24.08;50.10;101946.47;5024195;28;20065;-61
2023/10/01 07:29:01;;;;;;;6.55;5.22;;;;;;;24.09;50.44;101944.63;5021898;28;20049;-65
2023/10/01 07:31:35;;;;;;;7.20;6.50;;;;;;;24.07;49.93;101952.03;5021139;28;20046;-66
2023/10/01 07:34:12;;;;;;;9.93;7.15;;;;;;;23.99;50.08;101955.41;5021018;28;20049;-66
2023/10/01 07:36:42;;;;;;;12.20;9.02;;;;;;;23.90;50.41;101962.50;5018408;28;20377;-66
2023/10/01 07:39:12;;;;;;;9.38;7.88;;;;;;;23.81;50.17;101957.00;5020561;28;20046;-66
2023/10/01 07:41:44;;;;;;;10.55;8.82;;;;;;;23.69;50.53;101958.94;5021053;28;20412;-66
2023/10/01 07:44:12;;;;;;;10.88;9.48;;;;;;;23.56;50.88;101964.53;5023198;28;20045;-66
2023/10/01 07:46:42;;;;;;;9.73;8.77;;;;;;;23.44;50.94;101969.13;5022961;28;20499;-65
2023/10/01 07:49:10;;;;;;;9.27;8.30;;;;;;;23.33;51.49;101974.59;5020741;28;20049;-62
2023/10/01 07:51:44;;;;;;;11.93;9.63;;;;;;;23.23;51.45;101975.53;5020690;28;20053;-63
2023/10/01 07:54:12;;;;;;;9.68;8.75;;;;;;;23.17;51.57;101976.88;5015584;28;20053;-62
2023/10/01 07:56:49;;;;;;;11.68;9.63;;;;;;;23.11;51.80;101972.88;5021262;28;20049;-62
2023/10/01 07:59:28;;;;;;;13.63;9.85;;;;;;;23.06;52.23;101967.00;5020640;28;20049;-65
2023/10/01 08:02:19;;;;;;;9.80;8.80;;;;;;;23.03;52.09;101972.66;5023304;28;20064;-65
2023/10/01 08:07:22;;;;;;;11.02;9.65;;;;;;;23.02;52.24;101979.06;5019503;28;20419;-65
2023/10/01 08:09:54;;;;;;;11.55;10.35;;;;;;;22.97;52.08;101988.50;5023874;28;20049;-66
2023/10/01 08:13:04;;;;;;;9.38;8.45;;;;;;;22.95;51.92;101991.34;5021442;28;20049;-64
2023/10/01 08:15:29;;;;;;;9.98;8.98;;;;;;;23.02;52.00;101986.28;5020513;28;20041;-63
2023/10/01 08:18:19;;;;;;;8.85;7.95;;;;;;;23.08;52.01;101986.63;5017425;28;20052;-65
2023/10/01 08:20:57;;;;;;;10.77;8.23;;;;;;;23.20;52.04;101985.59;5012972;28;20046;-63
2023/10/01 08:23:33;;;;;;;7.85;6.95;;;;;;;23.29;51.89;101983.94;5021844;28;20400;-65
2023/10/01 08:26:41;;;;;;;7.80;6.55;;;;;;;23.37;51.77;101981.44;5022094;28;20048;-63
2023/10/01 08:28:57;;;;;;;7.90;7.10;;;;;;;23.44;51.56;101985.34;5020190;28;20496;-62
2023/10/01 08:34:24;;;;;;;7.95;6.85;;;;;;;23.55;51.23;101980.88;5010300;28;20049;-63
2023/10/01 08:36:57;;;;;;;7.63;6.43;;;;;;;23.59;51.44;101982.34;5020028;28;20045;-64
2023/10/01 08:39:35;;;;;;;7.80;6.97;;;;;;;23.61;51.24;101981.19;5023794;28;20484;-63
2023/10/01 08:42:12;;;;;;;7.70;6.05;;;;;;;23.65;51.22;101982.69;5009618;28;20507;-64
2023/10/01 08:44:50;;;;;;;7.32;6.63;;;;;;;23.69;51.24;101983.28;5019641;28;20400;-64
2023/10/01 08:47:22;;;;;;;6.90;6.00;;;;;;;23.70;51.05;101976.91;5014987;28;20049;-64
2023/10/01 08:49:51;;;;;;;5.85;5.25;;;;;;;23.74;50.92;101980.16;5019783;28;20057;-63
2023/10/01 08:52:27;;;;;;;6.82;6.13;;;;;;;23.77;50.93;101990.72;5019732;28;20042;-64
2023/10/01 08:54:54;;;;;;;6.30;5.63;;;;;;;23.78;51.17;101984.31;5021024;28;20053;-60
2023/10/01 08:57:45;;;;;;;8.45;6.85;;;;;;;23.80;50.96;101985.06;5021750;28;20045;-60
2023/10/01 09:00:20;;;;;;;6.88;6.07;;;;;;;23.80;51.05;101988.63;5019594;28;20050;-60
2023/10/01 09:03:10;;;;;;;7.72;6.43;;;;;;;23.82;50.85;101992.06;5021242;28;20050;-60
2023/10/01 09:05:46;;;;;;;6.82;6.22;;;;;;;23.84;50.80;101994.63;5008724;28;20053;-60
2023/10/01 09:08:29;;;;;;;8.02;7.00;;;;;;;23.85;50.86;101988.22;5019402;28;20416;-60
2023/10/01 09:10:56;;;;;;;6.38;5.78;;;;;;;23.86;50.75;101981.81;5014792;28;20056;-62
2023/10/01 09:13:26;;;;;;;6.95;6.25;;;;;;;23.87;50.49;101970.03;5019232;28;20045;-63
2023/10/01 09:15:55;;;;;;;7.03;6.32;;;;;;;23.88;50.92;101979.84;5019059;28;20042;-63
2023/10/01 09:18:25;;;;;;;7.53;6.28;;;;;;;23.88;50.76;101975.28;5020033;28;20060;-62
2023/10/01 09:21:06;;;;;;;7.78;6.32;;;;;;;23.88;50.79;101977.97;5022429;28;20419;-62
2023/10/01 09:23:56;;;;;;;7.95;6.47;;;;;;;23.90;50.86;101978.72;5010477;28;20050;-63
2023/10/01 09:26:39;;;;;;;8.07;6.85;;;;;;;23.91;50.47;101974.16;5021501;28;20046;-64
2023/10/01 09:29:20;;;;;;;;;;;;;;;23.90;50.70;101967.03;5019606;28;20069;-60
2023/10/01 09:31:56;;;;;;;6.65;6.03;;;;;;;23.91;50.51;101974.16;5019117;28;20299;-61
2023/10/01 09:34:31;;;;;;;8.05;6.13;;;;;;;23.92;50.43;101973.16;5021916;28;20045;-61
2023/10/01 09:37:42;;;;;;;7.18;6.47;;;;;;;23.92;50.83;101976.72;5019373;28;20056;-60
2023/10/01 09:43:03;;;;;;;7.25;6.43;;;;;;;23.93;50.75;101977.56;5018995;28;20054;-64
2023/10/01 09:45:37;;;;;;;6.40;5.80;;;;;;;23.94;50.66;101973.88;5018759;28;20049;-64
2023/10/01 09:48:09;;;;;;;7.85;6.30;;;;;;;23.95;50.46;101972.06;5021445;28;20050;-64
2023/10/01 09:50:42;;;;;;;6.95;6.25;;;;;;;23.95;50.62;101978.31;5020369;28;20403;-63
2023/10/01 09:53:12;;;;;;;6.30;5.70;;;;;;;23.95;50.61;101977.47;5018875;28;20484;-64
2023/10/01 09:55:48;;;;;;;7.00;5.60;;;;;;;23.97;50.55;101980.88;5018895;28;20053;-64
2023/10/01 09:58:24;;;;;;;6.90;6.20;;;;;;;23.97;50.37;101976.31;5021903;28;20046;-64
2023/10/01 10:01:01;;;;;;;6.50;5.80;;;;;;;23.98;50.38;101969.06;5009718;28;20048;-61
2023/10/01 10:03:36;;;;;;;6.80;6.10;;;;;;;23.98;50.70;101971.75;5018871;28;20046;-60
2023/10/01 10:06:06;;;;;;;6.75;6.05;;;;;;;23.98;50.53;101969.06;5014946;28;20495;-61
2023/10/01 10:08:35;;;;;;;6.88;6.05;;;;;;;23.97;50.45;101962.78;5007371;28;20049;-63
2023/10/01 10:11:06;;;;;;;6.30;5.70;;;;;;;23.98;50.34;101969.06;5018289;28;20045;-64
2023/10/01 10:13:48;;;;;;;7.13;6.43;;;;;;;23.99;50.36;101970.78;5019928;28;20050;-64
2023/10/01 10:16:32;;;;;;;7.05;6.35;;;;;;;23.99;50.57;101968.09;5018979;28;20053;-64
2023/10/01 10:19:11;;;;;;;6.38;5.78;;;;;;;23.98;50.40;101967.19;5017022;28;20053;-63
2023/10/01 10:24:35;;;;;;;6.50;5.90;;;;;;;24.00;50.29;101965.22;5009534;28;20050;-63
2023/10/01 10:27:08;;;;;;;6.40;5.75;;;;;;;24.00;50.44;101964.38;5018035;28;20392;-64
2023/10/01 10:29:58;;;;;;;6.25;5.65;;;;;;;24.01;50.31;101964.22;5013982;28;20054;-61
2023/10/01 10:32:42;;;;;;;7.03;5.68;;;;;;;24.00;50.15;101965.22;5009711;28;20053;-61
2023/10/01 10:35:14;;;;;;;6.28;5.50;;;;;;;24.00;50.14;101973.34;5019514;28;20046;-61
2023/10/01 10:37:48;;;;;;;6.03;5.43;;;;;;;24.01;50.11;101968.78;5012546;28;20050;-61
2023/10/01 10:42:58;;;;;;;7.38;5.55;;;;;;;24.01;49.98;101964.22;5018201;28;20050;-64
2023/10/01 10:45:47;;;;;;;6.88;5.57;;;;;;;24.01;50.37;101953.41;5014901;28;20045;-64
2023/10/01 10:48:21;;;;;;;6.30;5.70;;;;;;;24.01;50.29;101947.16;5010503;28;20057;-64
2023/10/01 10:51:02;;;;;;;6.93;5.90;;;;;;;24.02;50.31;101946.16;5019008;28;20049;-61
2023/10/01 10:53:52;;;;;;;5.78;5.03;;;;;;;24.01;50.51;101945.31;5007557;28;20050;-61
2023/10/01 10:56:34;;;;;;;5.90;5.30;;;;;;;24.01;50.07;101937.19;5018230;28;20042;-61
2023/10/01 10:59:03;;;;;;;6.15;5.47;;;;;;;24.01;50.51;101931.78;5021512;28;20045;-63
2023/10/01 11:01:44;;;;;;;7.00;6.30;;;;;;;24.02;50.16;101928.06;5018195;28;20061;-64
2023/10/01 11:04:15;;;;;;;6.43;5.82;;;;;;;24.02;50.21;101925.38;5017853;28;20046;-64
2023/10/01 11:06:43;;;;;;;6.50;5.60;;;;;;;24.03;50.33;101927.09;5019685;28;20045;-64
2023/10/01 11:09:30;;;;;;;6.15;5.30;;;;;;;24.03;50.11;101929.81;5020090;28;20042;-61
2023/10/01 11:12:05;;;;;;;6.03;5.38;;;;;;;24.04;50.37;101926.09;5017754;28;20045;-61
2023/10/01 11:14:35;;;;;;;6.03;5.32;;;;;;;24.03;50.43;101918.13;5019676;28;20050;-61
2023/10/01 11:17:07;;;;;;;6.40;5.35;;;;;;;24.03;50.23;101924.41;5020184;28;20056;-61
2023/10/01 11:19:35;;;;;;;5.85;5.25;;;;;;;24.04;50.27;101915.28;5019908;28;20050;-61
2023/10/01 11:22:06;;;;;;;5.40;4.90;;;;;;;24.03;50.11;101916.28;5019474;28;20057;-61
2023/10/01 11:24:39;;;;;;;6.05;5.45;;;;;;;24.04;50.23;101909.88;5024548;28;20408;-61
2023/10/01 11:27:22;;;;;;;6.45;5.72;;;;;;;24.04;50.34;101907.16;5021606;28;20054;-61
2023/10/01 11:30:20;;;;;;;6.60;5.97;;;;;;;24.04;50.38;101898.19;5020205;28;20484;-61
2023/10/01 11:35:31;;;;;;;5.70;5.10;;;;;;;24.04;50.20;101892.78;5019670;28;20053;-61
2023/10/01 11:38:20;;;;;;;6.05;5.47;;;;;;;24.04;50.11;101896.34;5022276;28;20428;-61
2023/10/01 11:41:07;;;;;;;5.78;5.20;;;;;;;24.04;50.63;101896.34;5022676;28;20065;-61
2023/10/01 11:43:58;;;;;;;6.03;5.43;;;;;;;24.05;50.18;101894.50;5021167;28;20061;-61
2023/10/01 11:46:57;;;;;;;6.43;5.10;;;;;;;24.04;50.29;101888.22;5018219;28;20046;-60
2023/10/01 11:49:37;;;;;;;5.28;4.78;;;;;;;24.04;50.48;101885.53;5015262;28;20050;-63
2023/10/01 11:52:27;;;;;;;6.57;4.45;;;;;;;24.06;50.08;101882.66;5018335;28;20041;-64
2023/10/01 11:54:54;;;;;;;6.00;5.40;;;;;;;24.05;50.16;101876.41;5011731;28;20057;-64
2023/10/01 11:57:24;;;;;;;6.20;5.60;;;;;;;24.04;50.10;101874.69;5020821;28;20053;-64
2023/10/01 11:59:55;;;;;;;5.78;5.18;;;;;;;24.06;50.12;101869.16;5023314;28;20050;-61
2023/10/01 12:02:32;;;;;;;6.13;5.05;;;;;;;24.05;50.45;101871.00;5020548;28;20053;-61
2023/10/01 12:05:04;;;;;;;6.15;5.50;;;;;;;24.05;50.19;101871.00;5020807;28;20052;-61
2023/10/01 12:07:45;;;;;;;5.88;5.20;;;;;;;24.06;49.98;101874.56;5021106;28;20500;-61
2023/10/01 12:10:32;;;;;;;5.80;5.20;;;;;;;24.05;50.18;101868.28;5022634;28;20057;-61
2023/10/01 12:13:00;;;;;;;5.72;5.22;;;;;;;24.06;50.34;101861.88;5020693;28;20053;-61
2023/10/01 12:15:34;;;;;;;6.85;5.45;;;;;;;24.05;50.11;101862.88;5021539;28;20069;-61
2023/10/01 12:18:17;;;;;;;4.97;4.22;;;;;;;24.06;49.95;101861.88;5022439;28;20053;-61
2023/10/01 12:20:47;;;;;;;5.20;4.68;;;;;;;24.05;50.20;101856.63;5020602;28;20054;-62
2023/10/01 12:23:18;;;;;;;5.32;4.82;;;;;;;24.06;50.05;101864.59;5020924;28;20050;-64
2023/10/01 12:25:53;;;;;;;5.45;4.95;;;;;;;24.06;49.98;101856.47;5023368;28;20049;-64
2023/10/01 12:28:32;;;;;;;6.55;5.25;;;;;;;24.06;49.92;101853.75;5011026;28;20050;-64
2023/10/01 12:31:09;;;;;;;5.32;4.80;;;;;;;24.07;50.22;101851.94;5019208;28;20045;-64
2023/10/01 12:33:41;;;;;;;5.40;4.90;;;;;;;24.07;50.03;101851.94;5016857;28;20049;-64
2023/10/01 12:36:31;;;;;;;5.40;4.85;;;;;;;24.07;50.19;101846.53;5010444;28;20046;-64